createdAt,value
2023-05-05T00:01:24.834Z,11.07
2023-05-05T00:03:51.974Z,11.05
2023-05-05T00:06:18.876Z,11.04
2023-05-05T00:08:46.420Z,11.02
2023-05-05T00:11:13.270Z,10.99
2023-05-05T00:13:40.092Z,11.00
2023-05-05T00:16:07.445Z,11.10
2023-05-05T00:18:34.300Z,11.22
2023-05-05T00:21:01.816Z,11.25
2023-05-05T00:23:28.823Z,11.26
2023-05-05T00:25:56.094Z,11.28
2023-05-05T00:28:23.223Z,11.28
2023-05-05T00:30:50.214Z,11.27
2023-05-05T00:33:17.226Z,11.29
2023-05-05T00:35:43.941Z,11.30
2023-05-05T00:38:10.756Z,11.32
2023-05-05T00:40:38.368Z,11.32
2023-05-05T00:43:05.367Z,11.30
2023-05-05T00:45:32.335Z,11.30
2023-05-05T00:47:59.508Z,11.40
2023-05-05T00:50:31.884Z,11.51
2023-05-05T00:53:02.123Z,11.53
2023-05-05T00:55:29.725Z,11.55
2023-05-05T00:58:00.330Z,11.58
2023-05-05T01:00:27.577Z,11.62
2023-05-05T01:02:55.601Z,11.65
2023-05-05T01:05:22.866Z,11.62
2023-05-05T01:07:55.915Z,11.57
2023-05-05T01:10:30.043Z,11.53
2023-05-05T01:13:34.808Z,11.58
2023-05-05T01:16:06.920Z,11.62
2023-05-05T01:18:46.390Z,11.59
2023-05-05T01:21:14.738Z,11.56
2023-05-05T01:24:02.747Z,11.49
2023-05-05T01:26:47.884Z,11.41
2023-05-05T01:29:35.492Z,11.34
2023-05-05T01:32:10.894Z,11.29
2023-05-05T01:34:42.315Z,11.35
2023-05-05T01:37:29.475Z,11.40
2023-05-05T01:39:59.336Z,11.39
2023-05-05T01:42:26.178Z,11.36
2023-05-05T01:44:53.364Z,11.32
2023-05-05T01:47:21.770Z,11.27
2023-05-05T01:49:48.988Z,11.24
2023-05-05T01:52:17.712Z,11.29
2023-05-05T01:54:45.217Z,11.33
2023-05-05T01:57:12.176Z,11.29
2023-05-05T01:59:39.765Z,11.19
2023-05-05T02:02:09.514Z,11.14
2023-05-05T02:04:37.554Z,11.09
2023-05-05T02:07:04.427Z,11.08
2023-05-05T02:09:31.405Z,11.05
2023-05-05T02:11:58.480Z,11.11
2023-05-05T02:14:27.168Z,11.14
2023-05-05T02:16:53.936Z,11.11
2023-05-05T02:19:21.526Z,11.03
2023-05-05T02:21:48.555Z,10.93
2023-05-05T02:24:15.458Z,10.85
2023-05-05T02:26:43.377Z,10.77
2023-05-05T02:29:16.720Z,10.80
2023-05-05T02:31:53.825Z,10.84
2023-05-05T02:34:27.097Z,10.81
2023-05-05T02:36:57.875Z,10.78
2023-05-05T02:39:29.890Z,10.72
2023-05-05T02:41:57.149Z,10.65
2023-05-05T02:44:26.243Z,10.62
2023-05-05T02:46:54.391Z,10.71
2023-05-05T02:49:21.725Z,10.77
2023-05-05T02:51:48.683Z,10.74
2023-05-05T02:54:20.767Z,10.69
2023-05-05T02:56:49.237Z,10.66
2023-05-05T02:59:22.081Z,10.65
2023-05-05T03:01:59.876Z,10.70
2023-05-05T03:05:02.696Z,10.73
2023-05-05T03:07:51.696Z,10.66
2023-05-05T03:10:21.408Z,10.55
2023-05-05T03:12:55.389Z,10.47
2023-05-05T03:15:37.872Z,10.41
2023-05-05T03:18:04.755Z,10.39
2023-05-05T03:20:32.163Z,10.48
2023-05-05T03:23:02.398Z,10.54
2023-05-05T03:25:43.005Z,10.52
2023-05-05T03:28:10.643Z,10.48
2023-05-05T03:30:37.820Z,10.48
2023-05-05T03:33:04.897Z,10.49
2023-05-05T03:35:32.251Z,10.49
2023-05-05T03:37:59.555Z,10.58
2023-05-05T03:40:36.258Z,10.60
2023-05-05T03:43:08.203Z,10.50
2023-05-05T03:45:35.054Z,10.41
2023-05-05T03:48:02.396Z,10.33
2023-05-05T03:50:29.759Z,10.26
2023-05-05T03:52:56.617Z,10.25
2023-05-05T03:55:23.417Z,10.24
2023-05-05T03:57:51.076Z,10.10
2023-05-05T04:00:18.201Z,9.92
2023-05-05T04:02:45.322Z,9.74
2023-05-05T04:05:12.560Z,9.68
2023-05-05T04:07:39.433Z,9.66
2023-05-05T04:10:07.401Z,9.56
2023-05-05T04:12:34.594Z,9.47
2023-05-05T04:15:01.596Z,9.40
2023-05-05T04:17:29.354Z,9.45
2023-05-05T04:19:56.401Z,9.51
2023-05-05T04:22:23.205Z,9.51
2023-05-05T04:24:50.904Z,9.50
2023-05-05T04:27:18.028Z,9.50
2023-05-05T04:29:44.957Z,9.60
2023-05-05T04:32:11.830Z,9.68
2023-05-05T04:34:38.742Z,9.68
2023-05-05T04:37:06.444Z,9.66
2023-05-05T04:39:33.980Z,9.66
2023-05-05T04:42:02.381Z,9.75
2023-05-05T04:44:29.680Z,9.81
2023-05-05T04:46:57.979Z,9.82
2023-05-05T04:49:24.996Z,9.81
2023-05-05T04:51:51.842Z,9.80
2023-05-05T04:54:18.670Z,9.82
2023-05-05T04:56:45.484Z,9.93
2023-05-05T04:59:12.279Z,9.97
2023-05-05T05:01:39.184Z,9.96
2023-05-05T05:04:07.367Z,9.97
2023-05-05T05:06:34.350Z,10.02
2023-05-05T05:09:01.126Z,10.19
2023-05-05T05:11:29.023Z,10.34
2023-05-05T05:13:55.924Z,10.37
2023-05-05T05:16:22.740Z,10.35
2023-05-05T05:18:49.556Z,10.32
2023-05-05T05:21:17.102Z,10.33
2023-05-05T05:23:44.347Z,10.42
2023-05-05T05:26:11.783Z,10.52
2023-05-05T05:28:38.742Z,10.59
2023-05-05T05:31:05.552Z,10.65
2023-05-05T05:33:32.518Z,10.70
2023-05-05T05:35:59.372Z,10.75
2023-05-05T05:38:26.317Z,10.85
2023-05-05T05:40:54.929Z,11.08
2023-05-05T05:43:21.861Z,11.29
2023-05-05T05:45:48.750Z,11.39
2023-05-05T05:48:15.989Z,11.46
2023-05-05T05:50:43.177Z,11.54
2023-05-05T05:53:10.060Z,11.62
2023-05-05T05:55:37.075Z,11.70
2023-05-05T05:58:04.416Z,11.90
2023-05-05T06:00:31.441Z,12.06
2023-05-05T06:03:01.103Z,12.11
2023-05-05T06:05:30.405Z,12.15
2023-05-05T06:07:57.538Z,12.16
2023-05-05T06:10:28.231Z,12.17
2023-05-05T06:13:00.717Z,12.26
2023-05-05T06:15:27.741Z,12.38
2023-05-05T06:17:54.815Z,12.47
2023-05-05T06:20:22.005Z,12.53
2023-05-05T06:22:48.950Z,12.56
2023-05-05T06:25:16.719Z,12.59
2023-05-05T06:27:43.752Z,12.62
2023-05-05T06:30:11.690Z,12.64
2023-05-05T06:32:38.643Z,12.62
2023-05-05T06:35:06.313Z,12.54
2023-05-05T06:37:33.197Z,12.50
2023-05-05T06:40:00.089Z,12.51
2023-05-05T06:42:26.992Z,12.66
2023-05-05T06:44:53.890Z,12.81
2023-05-05T06:47:20.706Z,12.91
2023-05-05T06:49:47.487Z,12.99
2023-05-05T06:52:14.500Z,13.04
2023-05-05T06:54:41.330Z,13.03
2023-05-05T06:57:08.203Z,13.03
2023-05-05T06:59:35.012Z,13.06
2023-05-05T07:02:01.924Z,13.06
2023-05-05T07:04:28.915Z,13.09
2023-05-05T07:06:56.467Z,13.13
2023-05-05T07:09:23.418Z,13.14
2023-05-05T07:11:50.373Z,13.14
2023-05-05T07:14:17.338Z,13.17
2023-05-05T07:18:47.751Z,13.19
2023-05-05T07:21:16.712Z,13.16
2023-05-05T07:23:43.570Z,13.19
2023-05-05T07:26:10.627Z,13.25
2023-05-05T07:28:37.457Z,13.30
2023-05-05T07:31:04.263Z,13.35
2023-05-05T07:33:31.501Z,13.40
2023-05-05T07:35:58.286Z,13.47
2023-05-05T07:38:25.874Z,13.50
2023-05-05T07:40:52.675Z,13.51
2023-05-05T07:43:19.568Z,13.53
2023-05-05T07:45:46.376Z,13.58
2023-05-05T07:48:13.190Z,13.64
2023-05-05T07:50:40.217Z,13.71
2023-05-05T07:53:14.365Z,13.81
2023-05-05T07:55:42.210Z,13.88
2023-05-05T07:58:11.110Z,13.96
2023-05-05T08:00:38.610Z,14.07
2023-05-05T08:03:05.975Z,14.14
2023-05-05T08:05:34.030Z,14.27
2023-05-05T08:08:00.967Z,14.38
2023-05-05T08:10:27.862Z,14.38
2023-05-05T08:12:55.093Z,14.39
2023-05-05T08:15:21.973Z,14.51
2023-05-05T08:17:50.569Z,14.60
2023-05-05T08:20:18.220Z,14.72
2023-05-05T08:22:45.328Z,14.80
2023-05-05T08:25:13.297Z,14.87
2023-05-05T08:27:41.128Z,15.00
2023-05-05T08:30:08.587Z,15.15
2023-05-05T08:32:35.587Z,15.27
2023-05-05T08:35:03.385Z,15.40
2023-05-05T08:37:30.719Z,15.54
2023-05-05T08:40:25.173Z,15.68
2023-05-05T08:42:51.916Z,15.76
2023-05-05T08:45:18.748Z,15.83
2023-05-05T08:47:45.725Z,15.91
2023-05-05T08:50:12.665Z,16.01
2023-05-05T08:52:42.198Z,16.12
2023-05-05T08:55:18.361Z,16.29
2023-05-05T08:57:51.772Z,16.50
2023-05-05T09:00:19.286Z,16.74
2023-05-05T09:02:46.262Z,16.99
2023-05-05T09:05:13.135Z,17.25
2023-05-05T09:07:44.343Z,17.52
2023-05-05T09:10:11.862Z,17.85
2023-05-05T09:12:40.623Z,18.08
2023-05-05T09:15:11.752Z,18.26
2023-05-05T09:17:39.417Z,18.42
2023-05-05T09:20:08.171Z,18.55
2023-05-05T09:22:39.798Z,18.72
2023-05-05T09:25:08.116Z,19.00
2023-05-05T09:27:41.150Z,19.38
2023-05-05T09:30:09.384Z,19.82
2023-05-05T09:32:54.945Z,20.19
2023-05-05T09:35:22.640Z,20.51
2023-05-05T09:37:49.509Z,20.76
2023-05-05T09:40:17.948Z,20.93
2023-05-05T09:42:45.078Z,21.13
2023-05-05T09:45:18.378Z,21.43
2023-05-05T09:47:46.180Z,21.84
2023-05-05T09:50:19.018Z,22.24
2023-05-05T09:53:02.044Z,22.68
2023-05-05T09:55:29.231Z,23.08
2023-05-05T09:57:56.183Z,23.39
2023-05-05T10:00:23.659Z,23.76
2023-05-05T10:02:50.514Z,24.08
2023-05-05T10:05:18.445Z,24.26
2023-05-05T10:07:47.031Z,24.36
2023-05-05T10:10:16.396Z,24.64
2023-05-05T10:12:43.510Z,25.06
2023-05-05T10:15:11.187Z,25.50
2023-05-05T10:17:58.366Z,25.91
2023-05-05T10:20:33.551Z,26.32
2023-05-05T10:23:00.370Z,26.66
2023-05-05T10:25:33.702Z,27.01
2023-05-05T10:28:01.268Z,27.39
2023-05-05T10:30:32.283Z,27.71
2023-05-05T10:35:53.578Z,28.15
2023-05-05T10:38:20.520Z,28.35
2023-05-05T10:40:48.744Z,28.62
2023-05-05T10:43:15.804Z,28.92
2023-05-05T10:45:42.572Z,28.99
2023-05-05T10:48:13.025Z,29.06
2023-05-05T10:50:44.759Z,29.08
2023-05-05T10:53:24.717Z,29.10
2023-05-05T10:56:06.522Z,29.28
2023-05-05T10:58:43.679Z,29.40
2023-05-05T11:01:14.680Z,29.26
2023-05-05T11:03:41.564Z,29.48
2023-05-05T11:06:08.969Z,29.89
2023-05-05T11:08:36.817Z,30.28
2023-05-05T11:11:04.228Z,30.62
2023-05-05T11:13:31.207Z,30.97
2023-05-05T11:15:58.926Z,31.31
2023-05-05T11:18:38.329Z,31.70
2023-05-05T11:21:15.867Z,32.13
2023-05-05T11:23:44.284Z,32.27
2023-05-05T11:26:12.302Z,32.35
2023-05-05T11:28:56.491Z,32.36
2023-05-05T11:31:23.575Z,32.49
2023-05-05T11:33:50.691Z,32.53
2023-05-05T11:36:18.319Z,32.75
2023-05-05T11:39:00.532Z,33.00
2023-05-05T11:41:33.551Z,33.39
2023-05-05T11:44:10.586Z,33.52
2023-05-05T11:46:38.901Z,32.98
2023-05-05T11:49:05.750Z,32.46
2023-05-05T11:51:32.906Z,32.20
2023-05-05T11:53:59.852Z,31.98
2023-05-05T11:56:26.767Z,31.84
2023-05-05T11:59:10.876Z,31.92
2023-05-05T12:01:41.355Z,32.03
2023-05-05T12:04:15.120Z,32.10
2023-05-05T12:06:42.412Z,32.32
2023-05-05T12:09:20.240Z,32.71
2023-05-05T12:11:52.676Z,33.15
2023-05-05T12:14:19.561Z,33.40
2023-05-05T12:16:58.763Z,33.66
2023-05-05T12:19:33.077Z,33.93
2023-05-05T12:22:00.868Z,34.12
2023-05-05T12:24:28.225Z,34.14
2023-05-05T12:26:55.018Z,34.16
2023-05-05T12:29:28.927Z,34.18
2023-05-05T12:31:56.091Z,34.47
2023-05-05T12:34:23.295Z,34.56
2023-05-05T12:36:50.077Z,34.65
2023-05-05T12:39:16.815Z,34.51
2023-05-05T12:41:43.600Z,34.47
2023-05-05T12:44:10.604Z,34.40
2023-05-05T12:46:47.458Z,33.99
2023-05-05T12:49:14.454Z,33.23
2023-05-05T12:51:55.790Z,32.35
2023-05-05T12:54:25.470Z,31.16
2023-05-05T12:56:52.274Z,29.94
2023-05-05T12:59:22.111Z,28.89
2023-05-05T13:01:52.946Z,27.90
2023-05-05T13:04:21.415Z,27.05
2023-05-05T13:06:49.297Z,26.22
2023-05-05T13:09:23.451Z,25.34
2023-05-05T13:11:50.722Z,24.50
2023-05-05T13:14:17.576Z,23.92
2023-05-05T13:16:44.418Z,23.48
2023-05-05T13:19:11.188Z,23.14
2023-05-05T13:21:37.996Z,22.85
2023-05-05T13:24:22.940Z,22.62
2023-05-05T13:26:52.207Z,22.37
2023-05-05T13:29:19.150Z,22.12
2023-05-05T13:31:46.008Z,21.90
2023-05-05T13:34:12.916Z,21.78
2023-05-05T13:36:39.753Z,21.66
2023-05-05T13:39:07.204Z,21.50
2023-05-05T13:41:33.975Z,21.30
2023-05-05T13:44:00.899Z,21.10
2023-05-05T13:46:27.851Z,20.90
2023-05-05T13:48:56.617Z,20.72
2023-05-05T13:51:23.828Z,20.57
2023-05-05T13:53:51.004Z,20.30
2023-05-05T13:56:19.306Z,19.87
2023-05-05T13:58:46.504Z,19.65
2023-05-05T14:01:15.444Z,19.53
2023-05-05T14:03:42.218Z,19.40
2023-05-05T14:06:09.340Z,19.34
2023-05-05T14:08:36.552Z,19.31
2023-05-05T14:11:03.959Z,19.25
2023-05-05T14:13:31.268Z,19.21
2023-05-05T14:15:58.519Z,19.16
2023-05-05T14:18:25.735Z,19.10
2023-05-05T14:20:52.716Z,19.06
2023-05-05T14:23:19.588Z,19.02
2023-05-05T14:25:46.624Z,18.98
2023-05-05T14:28:13.470Z,18.93
2023-05-05T14:30:40.245Z,18.85
2023-05-05T14:33:07.099Z,18.73
2023-05-05T14:35:34.118Z,18.64
2023-05-05T14:38:00.879Z,18.56
2023-05-05T14:40:29.624Z,18.46
2023-05-05T14:42:56.422Z,18.39
2023-05-05T14:45:23.619Z,18.34
2023-05-05T14:47:50.439Z,18.29
2023-05-05T14:50:17.254Z,18.26
2023-05-05T14:52:44.734Z,18.21
2023-05-05T14:55:11.997Z,18.10
2023-05-05T14:57:38.959Z,18.01
2023-05-05T15:00:10.985Z,17.93
2023-05-05T15:02:37.930Z,17.82
2023-05-05T15:05:05.272Z,17.73
2023-05-05T15:07:31.989Z,17.67
2023-05-05T15:09:58.733Z,17.62
2023-05-05T15:12:26.199Z,17.58
2023-05-05T15:14:53.149Z,17.56
2023-05-05T15:17:19.925Z,17.55
2023-05-05T15:19:46.790Z,17.55
2023-05-05T15:22:13.634Z,17.55
2023-05-05T15:24:40.582Z,17.54
2023-05-05T15:27:07.524Z,17.55
2023-05-05T15:29:34.378Z,17.57
2023-05-05T15:32:01.398Z,17.60
2023-05-05T15:34:28.429Z,17.66
2023-05-05T15:36:55.218Z,17.70
2023-05-05T15:39:22.005Z,17.71
2023-05-05T15:41:48.813Z,17.73
2023-05-05T15:44:16.061Z,17.74
2023-05-05T15:46:43.038Z,17.75
2023-05-05T15:49:09.899Z,17.75
2023-05-05T15:51:36.658Z,17.75
2023-05-05T15:54:03.405Z,17.74
2023-05-05T15:56:30.277Z,17.72
2023-05-05T15:58:57.190Z,17.68
2023-05-05T16:01:24.305Z,17.64
2023-05-05T16:03:51.931Z,17.55
2023-05-05T16:06:18.840Z,17.43
2023-05-05T16:08:47.851Z,17.32
2023-05-05T16:11:14.763Z,17.18
2023-05-05T16:13:42.663Z,17.04
2023-05-05T16:16:09.442Z,16.91
2023-05-05T16:18:36.307Z,16.79
2023-05-05T16:21:03.044Z,16.69
2023-05-05T16:23:29.909Z,16.59
2023-05-05T16:25:56.716Z,16.48
2023-05-05T16:28:23.468Z,16.38
2023-05-05T16:30:50.218Z,16.28
2023-05-05T16:33:17.051Z,16.20
2023-05-05T16:35:45.787Z,16.18
2023-05-05T16:38:13.416Z,16.13
2023-05-05T16:40:40.574Z,16.10
2023-05-05T16:43:07.392Z,16.05
2023-05-05T16:45:34.310Z,15.98
2023-05-05T16:48:01.158Z,15.95
2023-05-05T16:50:28.035Z,15.88
2023-05-05T16:52:54.850Z,15.80
2023-05-05T16:55:21.753Z,15.71
2023-05-05T16:57:48.583Z,15.62
2023-05-05T17:00:15.591Z,15.52
2023-05-05T17:02:42.484Z,15.43
2023-05-05T17:05:09.833Z,15.36
2023-05-05T17:07:36.908Z,15.30
2023-05-05T17:10:04.527Z,15.23
2023-05-05T17:12:31.369Z,15.15
2023-05-05T17:14:58.258Z,15.07
2023-05-05T17:17:25.154Z,15.02
2023-05-05T17:19:52.043Z,14.95
2023-05-05T17:22:20.988Z,14.87
2023-05-05T17:24:47.766Z,14.82
2023-05-05T17:27:14.540Z,14.77
2023-05-05T17:29:41.560Z,14.71
2023-05-05T17:32:09.047Z,14.66
2023-05-05T17:34:36.039Z,14.61
2023-05-05T17:37:02.828Z,14.55
2023-05-05T17:39:30.272Z,14.51
2023-05-05T17:41:57.166Z,14.44
2023-05-05T17:44:24.046Z,14.38
2023-05-05T17:46:51.119Z,14.31
2023-05-05T17:49:17.922Z,14.19
2023-05-05T17:51:44.675Z,14.10
2023-05-05T17:54:11.708Z,14.02
2023-05-05T17:56:38.510Z,13.93
2023-05-05T17:59:05.264Z,13.85
2023-05-05T18:01:32.894Z,13.78
2023-05-05T18:03:59.762Z,13.72
2023-05-05T18:06:27.005Z,13.67
2023-05-05T18:08:53.839Z,13.60
2023-05-05T18:11:21.433Z,13.50
2023-05-05T18:13:48.245Z,13.40
2023-05-05T18:16:15.065Z,13.27
2023-05-05T18:18:41.919Z,13.12
2023-05-05T18:21:12.366Z,13.02
2023-05-05T18:23:40.075Z,12.94
2023-05-05T18:26:07.276Z,12.88
2023-05-05T18:28:34.373Z,12.80
2023-05-05T18:31:01.238Z,12.74
2023-05-05T18:33:27.995Z,12.65
2023-05-05T18:35:55.276Z,12.56
2023-05-05T18:38:22.372Z,12.49
2023-05-05T18:40:49.180Z,12.46
2023-05-05T18:43:15.960Z,12.42
2023-05-05T18:45:42.824Z,12.40
2023-05-05T18:48:09.797Z,12.39
2023-05-05T18:50:36.711Z,12.41
2023-05-05T18:53:03.527Z,12.42
2023-05-05T18:55:30.289Z,12.43
2023-05-05T18:57:57.169Z,12.45
2023-05-05T19:00:24.620Z,12.46
2023-05-05T19:02:51.583Z,12.47
2023-05-05T19:05:18.603Z,12.45
2023-05-05T19:07:45.945Z,12.40
2023-05-05T19:10:12.986Z,12.39
2023-05-05T19:12:39.828Z,12.38
2023-05-05T19:15:07.767Z,12.36
2023-05-05T19:17:34.905Z,12.35
2023-05-05T19:20:02.333Z,12.33
2023-05-05T19:22:29.375Z,12.31
2023-05-05T19:24:56.131Z,12.28
2023-05-05T19:27:22.938Z,12.26
2023-05-05T19:29:52.493Z,12.24
2023-05-05T19:32:21.124Z,12.22
2023-05-05T19:36:27.924Z,12.20
2023-05-05T19:38:56.833Z,12.16
2023-05-05T19:41:23.712Z,12.15
2023-05-05T19:43:50.556Z,12.12
2023-05-05T19:46:17.482Z,12.08
2023-05-05T19:48:46.258Z,12.06
2023-05-05T19:51:14.082Z,12.00
2023-05-05T19:53:42.997Z,11.96
2023-05-05T19:56:10.194Z,11.92
2023-05-05T19:58:54.008Z,11.89
2023-05-05T20:01:21.387Z,11.85
2023-05-05T20:03:48.357Z,11.80
2023-05-05T20:06:15.518Z,11.77
2023-05-05T20:08:43.635Z,11.73
2023-05-05T20:11:10.444Z,11.69
2023-05-05T20:13:39.181Z,11.67
2023-05-05T20:16:07.301Z,11.76
2023-05-05T20:18:34.250Z,11.76
2023-05-05T20:21:01.976Z,11.72
2023-05-05T20:23:28.849Z,11.68
2023-05-05T20:25:56.140Z,11.65
2023-05-05T20:28:22.994Z,11.60
2023-05-05T20:30:49.888Z,11.56
2023-05-05T20:33:16.702Z,11.50
2023-05-05T20:35:43.601Z,11.46
2023-05-05T20:38:11.337Z,11.42
2023-05-05T20:40:38.283Z,11.39
2023-05-05T20:43:05.024Z,11.36
2023-05-05T20:45:34.187Z,11.34
2023-05-05T20:48:01.470Z,11.31
2023-05-05T20:50:28.645Z,11.26
2023-05-05T20:52:55.629Z,11.18
2023-05-05T20:55:22.570Z,11.09
2023-05-05T20:57:49.437Z,10.98
2023-05-05T21:00:16.470Z,10.89
2023-05-05T21:02:43.529Z,10.81
2023-05-05T21:05:10.872Z,10.74
2023-05-05T21:07:37.824Z,10.69
2023-05-05T21:10:05.096Z,10.64
2023-05-05T21:12:33.253Z,10.55
2023-05-05T21:15:00.689Z,10.48
2023-05-05T21:17:27.680Z,10.40
2023-05-05T21:19:55.006Z,10.32
2023-05-05T21:22:21.840Z,10.22
2023-05-05T21:24:48.691Z,10.16
2023-05-05T21:27:15.633Z,10.11
2023-05-05T21:29:42.477Z,10.04
2023-05-05T21:32:10.536Z,9.95
2023-05-05T21:34:37.980Z,9.88
2023-05-05T21:37:05.226Z,9.80
2023-05-05T21:39:33.297Z,9.73
2023-05-05T21:42:00.368Z,9.72
2023-05-05T21:44:28.322Z,9.79
2023-05-05T21:46:55.601Z,9.76
2023-05-05T21:49:22.534Z,9.69
2023-05-05T21:51:49.976Z,9.63
2023-05-05T21:54:16.964Z,9.62
2023-05-05T21:56:43.975Z,9.60
2023-05-05T21:59:11.219Z,9.53
2023-05-05T22:01:38.095Z,9.46
2023-05-05T22:04:05.185Z,9.41
2023-05-05T22:06:32.601Z,9.34
2023-05-05T22:08:59.432Z,9.26
2023-05-05T22:11:26.320Z,9.19
2023-05-05T22:13:53.118Z,9.22
2023-05-05T22:16:19.986Z,9.23
2023-05-05T22:18:46.916Z,9.17
2023-05-05T22:21:13.769Z,9.10
2023-05-05T22:23:42.048Z,9.05
2023-05-05T22:26:09.483Z,8.99
2023-05-05T22:28:36.524Z,8.95
2023-05-05T22:31:03.311Z,8.89
2023-05-05T22:33:30.314Z,8.85
2023-05-05T22:35:57.092Z,8.91
2023-05-05T22:38:23.874Z,8.97
2023-05-05T22:40:50.762Z,8.94
2023-05-05T22:43:17.558Z,8.86
2023-05-05T22:45:44.388Z,8.80
2023-05-05T22:48:11.467Z,8.76
2023-05-05T22:50:38.401Z,8.70
2023-05-05T22:53:05.211Z,8.64
2023-05-05T22:55:32.491Z,8.59
2023-05-05T22:57:59.334Z,8.54
2023-05-05T23:00:26.326Z,8.59
2023-05-05T23:02:53.221Z,8.56
2023-05-05T23:05:20.331Z,8.48
2023-05-05T23:07:47.726Z,8.41
2023-05-05T23:10:14.786Z,8.36
2023-05-05T23:12:41.781Z,8.30
2023-05-05T23:15:10.180Z,8.23
2023-05-05T23:17:37.354Z,8.19
2023-05-05T23:20:04.752Z,8.25
2023-05-05T23:22:31.619Z,8.32
2023-05-05T23:24:58.519Z,8.31
2023-05-05T23:27:25.409Z,8.29
2023-05-05T23:29:52.679Z,8.27
2023-05-05T23:32:19.499Z,8.22
2023-05-05T23:34:46.617Z,8.19
2023-05-05T23:37:15.028Z,8.18
2023-05-05T23:39:42.059Z,8.18
2023-05-05T23:42:08.951Z,8.28
2023-05-05T23:44:35.921Z,8.37
2023-05-05T23:47:04.193Z,8.36
2023-05-05T23:49:31.407Z,8.34
2023-05-05T23:51:58.588Z,8.34
2023-05-05T23:54:25.411Z,8.30
2023-05-05T23:56:52.536Z,8.23
2023-05-05T23:59:19.365Z,8.17
